Pranjani

RS-0074 · Central Serbia, Serbia

使用的METAR站距离机场41 km。
罗盘
风向 的 风向 050° Pranjani 13/31
风: 3 kt, 1 beaufort


3 kt
改变
0 ft 1.000 2.000 3.000 4.000 5.000
Cloud Cloud Cloud Cloud
SCT 1.000
METAR LYKV 020600Z 05003KT 9999 SCT010 08/08 Q1010 NOSIG

METAR Pranjani - RS-0074

Pranjani是,Serbia中的小机场。 该机场位于纬度44,03575和经度20,17821。 该机场有一条跑道: 13/31. 这个机场没有ICAO代码,我们使用RS-0074作为参考。 机场在Beograd FIR中。

该航空气象观测是针对Morava Airport在2024年3月2日 07:00, 当地时间进行的。

机场观察

风向为050°,速度为3 kt。

可见度为10 km 或者更多。

有疏云,零星散落的云朵在1.000 ft的高度。 没有观察到天花板。

温度为8 °C,阵风为6 °C。 露点为8 °C,相对湿度为100%。 海平面上的气压为1010 hPa (QNH)。

白天

今天,太阳从06:13升起,在17:29降落。 这适用于Pranjani,世界夏令时可能有所不同。 当地时间与世界标准时间之间的时差为+1 小时。 当前,没有夏令时有效。

公司介绍

我们没有关于这个机场的公司信息。

体会

到Vliegles.nl去找飞行课程,跳伞和其他飞行体验。 浏览页面,了解Pranjani附近所有可用的活动。 你也可以使用搜索功能来寻找你所在地附近的特定飞行课程、跳伞或其他飞行体验。

跑道

Id 标题 侧风 逆风 侧风 %
13/31 131°-311° 3 kt 99 %

逆风成分最大的方向会被突出显示,并用于横风计算。 这并不一定意味着这个方向在使用。

乌云

1.000 ft SCT 疏云,零星散落的云朵

温度 & 天气

温度 8 °C
露点 8 °C
相对湿度 100%
风寒 6 °C
Kp-index 0 (0-9)

白天

日出
06:11
中午
11:49
日落
17:27 (10:04)

小工具

你想在你的网站上有一个关于Pranjani的当前航空天气(METAR)的小部件吗?

显示HTML代码
?>